sensor_id;sensor_type;location;lat;lon;timestamp;P1;durP1;ratioP1;P2;durP2;ratioP2
80700;SDS011;71609;42.630;23.380;2023-10-19T00:01:06;6.05;;;3.30;;
80700;SDS011;71609;42.630;23.380;2023-10-19T00:03:36;5.38;;;3.10;;
80700;SDS011;71609;42.630;23.380;2023-10-19T00:06:02;8.35;;;3.60;;
80700;SDS011;71609;42.630;23.380;2023-10-19T00:08:30;7.10;;;3.38;;
80700;SDS011;71609;42.630;23.380;2023-10-19T00:11:06;6.38;;;3.40;;
80700;SDS011;71609;42.630;23.380;2023-10-19T00:13:46;5.82;;;3.28;;
80700;SDS011;71609;42.630;23.380;2023-10-19T00:16:14;6.60;;;3.10;;
80700;SDS011;71609;42.630;23.380;2023-10-19T00:18:47;7.97;;;3.22;;
80700;SDS011;71609;42.630;23.380;2023-10-19T00:21:14;6.20;;;3.25;;
80700;SDS011;71609;42.630;23.380;2023-10-19T00:23:51;6.60;;;3.40;;
80700;SDS011;71609;42.630;23.380;2023-10-19T00:26:22;5.97;;;3.40;;
80700;SDS011;71609;42.630;23.380;2023-10-19T00:31:37;6.30;;;3.40;;
80700;SDS011;71609;42.630;23.380;2023-10-19T00:34:05;6.22;;;3.10;;
80700;SDS011;71609;42.630;23.380;2023-10-19T00:36:31;5.95;;;3.28;;
80700;SDS011;71609;42.630;23.380;2023-10-19T00:38:58;6.05;;;3.20;;
80700;SDS011;71609;42.630;23.380;2023-10-19T00:41:26;5.78;;;3.33;;
80700;SDS011;71609;42.630;23.380;2023-10-19T00:43:56;5.68;;;3.40;;
80700;SDS011;71609;42.630;23.380;2023-10-19T00:46:37;5.70;;;3.30;;
80700;SDS011;71609;42.630;23.380;2023-10-19T00:49:08;6.20;;;3.50;;
80700;SDS011;71609;42.630;23.380;2023-10-19T00:51:45;5.63;;;2.95;;
80700;SDS011;71609;42.630;23.380;2023-10-19T00:54:33;5.88;;;3.05;;
80700;SDS011;71609;42.630;23.380;2023-10-19T00:57:02;5.95;;;3.20;;
80700;SDS011;71609;42.630;23.380;2023-10-19T00:59:39;5.85;;;3.30;;
80700;SDS011;71609;42.630;23.380;2023-10-19T01:02:12;5.93;;;3.40;;
80700;SDS011;71609;42.630;23.380;2023-10-19T01:04:56;7.15;;;3.55;;
80700;SDS011;71609;42.630;23.380;2023-10-19T01:07:32;6.22;;;3.55;;
80700;SDS011;71609;42.630;23.380;2023-10-19T01:10:05;5.22;;;3.00;;
80700;SDS011;71609;42.630;23.380;2023-10-19T01:12:48;6.40;;;3.50;;
80700;SDS011;71609;42.630;23.380;2023-10-19T01:15:18;6.50;;;3.15;;
80700;SDS011;71609;42.630;23.380;2023-10-19T01:17:52;5.72;;;3.17;;
80700;SDS011;71609;42.630;23.380;2023-10-19T01:25:50;5.78;;;3.25;;
80700;SDS011;71609;42.630;23.380;2023-10-19T01:28:19;5.75;;;3.20;;
80700;SDS011;71609;42.630;23.380;2023-10-19T01:30:50;5.35;;;3.00;;
80700;SDS011;71609;42.630;23.380;2023-10-19T01:33:19;5.75;;;3.15;;
80700;SDS011;71609;42.630;23.380;2023-10-19T01:35:46;5.43;;;3.00;;
80700;SDS011;71609;42.630;23.380;2023-10-19T01:38:31;5.93;;;3.28;;
80700;SDS011;71609;42.630;23.380;2023-10-19T01:40:58;5.00;;;2.80;;
80700;SDS011;71609;42.630;23.380;2023-10-19T01:43:28;4.72;;;2.88;;
80700;SDS011;71609;42.630;23.380;2023-10-19T01:46:00;6.28;;;3.20;;
80700;SDS011;71609;42.630;23.380;2023-10-19T01:48:30;6.40;;;3.20;;
80700;SDS011;71609;42.630;23.380;2023-10-19T01:51:01;7.43;;;2.95;;
80700;SDS011;71609;42.630;23.380;2023-10-19T01:53:32;5.18;;;2.88;;
80700;SDS011;71609;42.630;23.380;2023-10-19T01:56:00;6.75;;;3.22;;
80700;SDS011;71609;42.630;23.380;2023-10-19T01:58:26;5.13;;;2.85;;
80700;SDS011;71609;42.630;23.380;2023-10-19T02:00:55;5.40;;;2.88;;
80700;SDS011;71609;42.630;23.380;2023-10-19T02:03:25;6.07;;;3.10;;
80700;SDS011;71609;42.630;23.380;2023-10-19T02:05:59;5.30;;;3.15;;
80700;SDS011;71609;42.630;23.380;2023-10-19T02:08:35;7.05;;;2.95;;
80700;SDS011;71609;42.630;23.380;2023-10-19T02:11:04;5.25;;;2.92;;
80700;SDS011;71609;42.630;23.380;2023-10-19T02:13:44;4.90;;;2.80;;
80700;SDS011;71609;42.630;23.380;2023-10-19T02:16:15;6.15;;;2.97;;
80700;SDS011;71609;42.630;23.380;2023-10-19T02:18:42;4.80;;;2.85;;
80700;SDS011;71609;42.630;23.380;2023-10-19T02:21:09;5.32;;;2.92;;
80700;SDS011;71609;42.630;23.380;2023-10-19T02:23:37;4.35;;;2.55;;
80700;SDS011;71609;42.630;23.380;2023-10-19T02:26:09;5.65;;;3.00;;
80700;SDS011;71609;42.630;23.380;2023-10-19T02:28:38;5.38;;;3.05;;
80700;SDS011;71609;42.630;23.380;2023-10-19T02:31:05;5.00;;;2.83;;
80700;SDS011;71609;42.630;23.380;2023-10-19T02:33:47;6.07;;;2.80;;
80700;SDS011;71609;42.630;23.380;2023-10-19T02:36:17;4.88;;;2.83;;
80700;SDS011;71609;42.630;23.380;2023-10-19T02:38:44;5.45;;;3.05;;
80700;SDS011;71609;42.630;23.380;2023-10-19T02:43:44;5.43;;;3.20;;
80700;SDS011;71609;42.630;23.380;2023-10-19T02:46:16;4.75;;;2.50;;
80700;SDS011;71609;42.630;23.380;2023-10-19T02:48:43;4.82;;;2.55;;
80700;SDS011;71609;42.630;23.380;2023-10-19T02:51:13;5.25;;;2.97;;
80700;SDS011;71609;42.630;23.380;2023-10-19T02:56:15;5.07;;;2.60;;
80700;SDS011;71609;42.630;23.380;2023-10-19T02:58:48;6.10;;;2.88;;
80700;SDS011;71609;42.630;23.380;2023-10-19T03:01:21;4.82;;;2.60;;
80700;SDS011;71609;42.630;23.380;2023-10-19T03:03:50;4.93;;;2.75;;
80700;SDS011;71609;42.630;23.380;2023-10-19T03:06:19;6.40;;;2.53;;
80700;SDS011;71609;42.630;23.380;2023-10-19T03:11:23;4.53;;;2.70;;
80700;SDS011;71609;42.630;23.380;2023-10-19T03:13:50;5.38;;;2.95;;
80700;SDS011;71609;42.630;23.380;2023-10-19T03:16:19;5.18;;;2.65;;
80700;SDS011;71609;42.630;23.380;2023-10-19T03:18:46;5.63;;;3.03;;
80700;SDS011;71609;42.630;23.380;2023-10-19T03:21:12;4.57;;;2.70;;
80700;SDS011;71609;42.630;23.380;2023-10-19T03:23:38;5.18;;;2.83;;
80700;SDS011;71609;42.630;23.380;2023-10-19T03:26:06;6.30;;;2.92;;
80700;SDS011;71609;42.630;23.380;2023-10-19T03:29:04;5.53;;;2.85;;
80700;SDS011;71609;42.630;23.380;2023-10-19T03:31:36;5.00;;;2.72;;
80700;SDS011;71609;42.630;23.380;2023-10-19T03:34:08;4.97;;;2.80;;
80700;SDS011;71609;42.630;23.380;2023-10-19T03:36:35;5.05;;;2.75;;
80700;SDS011;71609;42.630;23.380;2023-10-19T03:39:01;4.88;;;2.45;;
80700;SDS011;71609;42.630;23.380;2023-10-19T03:41:46;5.22;;;2.80;;
80700;SDS011;71609;42.630;23.380;2023-10-19T03:44:14;5.20;;;2.60;;
80700;SDS011;71609;42.630;23.380;2023-10-19T03:46:50;4.65;;;2.63;;
80700;SDS011;71609;42.630;23.380;2023-10-19T03:52:03;5.80;;;2.90;;
80700;SDS011;71609;42.630;23.380;2023-10-19T03:54:35;4.72;;;2.47;;
80700;SDS011;71609;42.630;23.380;2023-10-19T03:57:06;4.75;;;2.72;;
80700;SDS011;71609;42.630;23.380;2023-10-19T03:59:37;4.60;;;2.35;;
80700;SDS011;71609;42.630;23.380;2023-10-19T04:02:03;6.13;;;3.00;;
80700;SDS011;71609;42.630;23.380;2023-10-19T04:04:44;4.85;;;2.78;;
80700;SDS011;71609;42.630;23.380;2023-10-19T04:07:13;4.78;;;2.45;;
80700;SDS011;71609;42.630;23.380;2023-10-19T04:09:49;5.65;;;2.63;;
80700;SDS011;71609;42.630;23.380;2023-10-19T04:12:32;6.05;;;2.60;;
80700;SDS011;71609;42.630;23.380;2023-10-19T04:15:00;6.13;;;2.90;;
80700;SDS011;71609;42.630;23.380;2023-10-19T04:17:44;5.35;;;2.70;;
80700;SDS011;71609;42.630;23.380;2023-10-19T04:20:11;9.15;;;2.50;;
80700;SDS011;71609;42.630;23.380;2023-10-19T04:22:41;8.00;;;2.80;;
80700;SDS011;71609;42.630;23.380;2023-10-19T04:25:07;4.88;;;2.78;;
80700;SDS011;71609;42.630;23.380;2023-10-19T04:27:33;6.55;;;2.40;;
80700;SDS011;71609;42.630;23.380;2023-10-19T04:30:02;8.32;;;2.88;;
80700;SDS011;71609;42.630;23.380;2023-10-19T04:32:28;8.57;;;2.75;;
80700;SDS011;71609;42.630;23.380;2023-10-19T04:34:55;7.00;;;2.70;;
80700;SDS011;71609;42.630;23.380;2023-10-19T04:37:23;4.00;;;2.40;;
80700;SDS011;71609;42.630;23.380;2023-10-19T04:39:49;6.90;;;3.25;;
80700;SDS011;71609;42.630;23.380;2023-10-19T04:42:15;5.60;;;2.72;;
80700;SDS011;71609;42.630;23.380;2023-10-19T04:44:41;6.82;;;2.70;;
80700;SDS011;71609;42.630;23.380;2023-10-19T04:47:07;8.02;;;2.42;;
80700;SDS011;71609;42.630;23.380;2023-10-19T04:49:32;5.65;;;2.67;;
80700;SDS011;71609;42.630;23.380;2023-10-19T04:51:58;8.68;;;2.70;;
80700;SDS011;71609;42.630;23.380;2023-10-19T04:54:24;4.82;;;2.80;;
80700;SDS011;71609;42.630;23.380;2023-10-19T04:56:49;5.80;;;2.90;;
80700;SDS011;71609;42.630;23.380;2023-10-19T04:59:17;4.90;;;2.42;;
80700;SDS011;71609;42.630;23.380;2023-10-19T05:01:43;4.57;;;2.20;;
80700;SDS011;71609;42.630;23.380;2023-10-19T05:04:09;5.57;;;2.30;;
80700;SDS011;71609;42.630;23.380;2023-10-19T05:06:34;5.47;;;3.00;;
80700;SDS011;71609;42.630;23.380;2023-10-19T05:09:00;5.93;;;2.60;;
80700;SDS011;71609;42.630;23.380;2023-10-19T05:11:28;4.40;;;2.17;;
80700;SDS011;71609;42.630;23.380;2023-10-19T05:13:53;4.95;;;2.15;;
80700;SDS011;71609;42.630;23.380;2023-10-19T05:16:20;5.03;;;2.70;;
80700;SDS011;71609;42.630;23.380;2023-10-19T05:18:46;6.32;;;2.65;;
80700;SDS011;71609;42.630;23.380;2023-10-19T05:21:11;4.95;;;2.30;;
80700;SDS011;71609;42.630;23.380;2023-10-19T05:23:37;7.88;;;3.05;;
80700;SDS011;71609;42.630;23.380;2023-10-19T05:26:04;7.63;;;2.40;;
80700;SDS011;71609;42.630;23.380;2023-10-19T05:28:31;5.68;;;2.63;;
80700;SDS011;71609;42.630;23.380;2023-10-19T05:30:57;4.88;;;2.50;;
80700;SDS011;71609;42.630;23.380;2023-10-19T05:33:24;5.63;;;2.53;;
80700;SDS011;71609;42.630;23.380;2023-10-19T05:35:52;8.20;;;2.70;;
80700;SDS011;71609;42.630;23.380;2023-10-19T05:38:18;8.15;;;2.42;;
80700;SDS011;71609;42.630;23.380;2023-10-19T05:40:47;7.30;;;2.30;;
80700;SDS011;71609;42.630;23.380;2023-10-19T05:43:15;9.18;;;2.70;;
80700;SDS011;71609;42.630;23.380;2023-10-19T05:45:41;13.73;;;3.45;;
80700;SDS011;71609;42.630;23.380;2023-10-19T05:48:07;10.75;;;2.30;;
80700;SDS011;71609;42.630;23.380;2023-10-19T05:50:33;5.28;;;2.20;;
80700;SDS011;71609;42.630;23.380;2023-10-19T05:55:35;15.20;;;2.67;;
80700;SDS011;71609;42.630;23.380;2023-10-19T05:58:01;10.27;;;2.78;;
80700;SDS011;71609;42.630;23.380;2023-10-19T06:00:29;14.27;;;2.50;;
80700;SDS011;71609;42.630;23.380;2023-10-19T06:02:56;12.98;;;2.50;;
80700;SDS011;71609;42.630;23.380;2023-10-19T06:05:22;20.73;;;2.30;;
80700;SDS011;71609;42.630;23.380;2023-10-19T06:07:49;9.88;;;2.40;;
80700;SDS011;71609;42.630;23.380;2023-10-19T06:10:17;17.85;;;2.50;;
80700;SDS011;71609;42.630;23.380;2023-10-19T06:12:46;23.83;;;2.65;;
80700;SDS011;71609;42.630;23.380;2023-10-19T06:15:14;20.58;;;3.15;;
80700;SDS011;71609;42.630;23.380;2023-10-19T06:17:40;15.80;;;2.88;;
80700;SDS011;71609;42.630;23.380;2023-10-19T06:20:08;11.52;;;3.00;;
80700;SDS011;71609;42.630;23.380;2023-10-19T06:22:55;8.50;;;2.33;;
80700;SDS011;71609;42.630;23.380;2023-10-19T06:25:24;7.53;;;2.00;;
80700;SDS011;71609;42.630;23.380;2023-10-19T06:27:50;8.00;;;2.25;;
80700;SDS011;71609;42.630;23.380;2023-10-19T06:30:17;11.98;;;2.60;;
80700;SDS011;71609;42.630;23.380;2023-10-19T06:32:48;10.85;;;2.85;;
80700;SDS011;71609;42.630;23.380;2023-10-19T06:35:15;10.13;;;2.28;;
80700;SDS011;71609;42.630;23.380;2023-10-19T06:37:45;10.77;;;2.70;;
80700;SDS011;71609;42.630;23.380;2023-10-19T06:40:11;11.25;;;2.55;;
80700;SDS011;71609;42.630;23.380;2023-10-19T06:42:42;10.95;;;2.53;;
80700;SDS011;71609;42.630;23.380;2023-10-19T06:45:11;7.55;;;2.13;;
80700;SDS011;71609;42.630;23.380;2023-10-19T06:47:44;11.20;;;2.60;;
80700;SDS011;71609;42.630;23.380;2023-10-19T06:50:15;6.57;;;2.10;;
80700;SDS011;71609;42.630;23.380;2023-10-19T06:52:42;6.63;;;2.05;;
80700;SDS011;71609;42.630;23.380;2023-10-19T06:57:47;6.20;;;2.08;;
80700;SDS011;71609;42.630;23.380;2023-10-19T07:00:21;6.47;;;2.30;;
80700;SDS011;71609;42.630;23.380;2023-10-19T07:02:49;7.97;;;2.50;;
80700;SDS011;71609;42.630;23.380;2023-10-19T07:05:16;6.68;;;2.42;;
80700;SDS011;71609;42.630;23.380;2023-10-19T07:07:55;8.05;;;2.60;;
80700;SDS011;71609;42.630;23.380;2023-10-19T07:10:23;7.10;;;2.40;;
80700;SDS011;71609;42.630;23.380;2023-10-19T07:12:53;6.95;;;2.33;;
80700;SDS011;71609;42.630;23.380;2023-10-19T07:15:19;4.93;;;2.10;;
80700;SDS011;71609;42.630;23.380;2023-10-19T07:17:47;5.13;;;2.15;;
80700;SDS011;71609;42.630;23.380;2023-10-19T07:20:15;7.22;;;2.00;;
80700;SDS011;71609;42.630;23.380;2023-10-19T07:23:03;9.15;;;2.92;;
80700;SDS011;71609;42.630;23.380;2023-10-19T07:25:43;11.02;;;2.47;;
80700;SDS011;71609;42.630;23.380;2023-10-19T07:28:10;19.50;;;2.47;;
80700;SDS011;71609;42.630;23.380;2023-10-19T07:30:37;8.52;;;2.92;;
80700;SDS011;71609;42.630;23.380;2023-10-19T07:33:04;8.63;;;2.30;;
80700;SDS011;71609;42.630;23.380;2023-10-19T07:35:33;10.82;;;2.20;;
80700;SDS011;71609;42.630;23.380;2023-10-19T07:38:01;7.32;;;2.15;;
80700;SDS011;71609;42.630;23.380;2023-10-19T07:40:28;6.35;;;2.13;;
80700;SDS011;71609;42.630;23.380;2023-10-19T07:42:55;8.18;;;2.25;;
80700;SDS011;71609;42.630;23.380;2023-10-19T07:45:21;12.18;;;2.58;;
80700;SDS011;71609;42.630;23.380;2023-10-19T07:47:47;17.00;;;2.90;;
80700;SDS011;71609;42.630;23.380;2023-10-19T07:50:14;23.35;;;3.05;;
80700;SDS011;71609;42.630;23.380;2023-10-19T07:55:13;34.63;;;2.65;;
80700;SDS011;71609;42.630;23.380;2023-10-19T07:57:40;24.27;;;3.30;;
80700;SDS011;71609;42.630;23.380;2023-10-19T08:00:07;34.42;;;4.28;;
80700;SDS011;71609;42.630;23.380;2023-10-19T08:02:36;18.17;;;3.67;;
80700;SDS011;71609;42.630;23.380;2023-10-19T08:05:14;19.73;;;2.47;;
80700;SDS011;71609;42.630;23.380;2023-10-19T08:07:43;22.70;;;2.83;;
80700;SDS011;71609;42.630;23.380;2023-10-19T08:10:09;34.70;;;3.30;;
80700;SDS011;71609;42.630;23.380;2023-10-19T08:12:39;52.72;;;3.53;;
80700;SDS011;71609;42.630;23.380;2023-10-19T08:15:10;39.33;;;3.80;;
80700;SDS011;71609;42.630;23.380;2023-10-19T08:17:37;35.92;;;4.20;;
80700;SDS011;71609;42.630;23.380;2023-10-19T08:20:05;21.30;;;3.20;;
80700;SDS011;71609;42.630;23.380;2023-10-19T08:22:34;26.80;;;4.05;;
80700;SDS011;71609;42.630;23.380;2023-10-19T08:25:02;19.73;;;2.65;;
80700;SDS011;71609;42.630;23.380;2023-10-19T08:27:29;30.90;;;3.30;;
80700;SDS011;71609;42.630;23.380;2023-10-19T08:29:56;25.88;;;2.83;;
80700;SDS011;71609;42.630;23.380;2023-10-19T08:32:22;23.55;;;3.10;;
80700;SDS011;71609;42.630;23.380;2023-10-19T08:34:48;15.75;;;3.22;;
80700;SDS011;71609;42.630;23.380;2023-10-19T08:37:13;28.40;;;3.65;;
80700;SDS011;71609;42.630;23.380;2023-10-19T08:39:39;14.75;;;2.80;;
80700;SDS011;71609;42.630;23.380;2023-10-19T08:42:05;23.77;;;3.00;;
80700;SDS011;71609;42.630;23.380;2023-10-19T08:44:31;26.48;;;3.03;;
80700;SDS011;71609;42.630;23.380;2023-10-19T08:46:58;16.90;;;3.15;;
80700;SDS011;71609;42.630;23.380;2023-10-19T08:49:26;16.27;;;2.85;;
80700;SDS011;71609;42.630;23.380;2023-10-19T08:51:53;15.45;;;2.92;;
80700;SDS011;71609;42.630;23.380;2023-10-19T08:54:20;33.67;;;3.08;;
80700;SDS011;71609;42.630;23.380;2023-10-19T08:56:46;24.92;;;3.13;;
80700;SDS011;71609;42.630;23.380;2023-10-19T08:59:15;16.77;;;3.07;;
80700;SDS011;71609;42.630;23.380;2023-10-19T09:01:42;28.80;;;3.90;;
80700;SDS011;71609;42.630;23.380;2023-10-19T09:04:11;12.57;;;2.90;;
80700;SDS011;71609;42.630;23.380;2023-10-19T09:06:39;15.02;;;3.30;;
80700;SDS011;71609;42.630;23.380;2023-10-19T09:09:09;18.30;;;4.20;;
80700;SDS011;71609;42.630;23.380;2023-10-19T09:11:42;30.00;;;3.90;;
80700;SDS011;71609;42.630;23.380;2023-10-19T09:14:12;15.75;;;3.50;;
80700;SDS011;71609;42.630;23.380;2023-10-19T09:16:38;16.50;;;2.92;;
80700;SDS011;71609;42.630;23.380;2023-10-19T09:19:20;16.75;;;3.63;;
80700;SDS011;71609;42.630;23.380;2023-10-19T09:22:01;21.95;;;4.30;;
80700;SDS011;71609;42.630;23.380;2023-10-19T09:24:32;25.40;;;3.40;;
80700;SDS011;71609;42.630;23.380;2023-10-19T09:26:59;39.88;;;4.20;;
80700;SDS011;71609;42.630;23.380;2023-10-19T09:29:27;28.42;;;4.07;;
80700;SDS011;71609;42.630;23.380;2023-10-19T09:31:52;30.05;;;3.95;;
80700;SDS011;71609;42.630;23.380;2023-10-19T09:36:57;30.70;;;3.80;;
80700;SDS011;71609;42.630;23.380;2023-10-19T09:39:27;28.15;;;3.90;;
80700;SDS011;71609;42.630;23.380;2023-10-19T09:42:12;34.20;;;3.95;;
80700;SDS011;71609;42.630;23.380;2023-10-19T09:44:42;29.45;;;3.97;;
80700;SDS011;71609;42.630;23.380;2023-10-19T09:47:12;36.55;;;4.25;;
80700;SDS011;71609;42.630;23.380;2023-10-19T09:50:00;17.08;;;3.95;;
80700;SDS011;71609;42.630;23.380;2023-10-19T09:52:27;26.88;;;4.45;;
80700;SDS011;71609;42.630;23.380;2023-10-19T10:00:14;19.23;;;4.03;;
80700;SDS011;71609;42.630;23.380;2023-10-19T10:02:48;14.40;;;3.42;;
80700;SDS011;71609;42.630;23.380;2023-10-19T10:10:46;53.42;;;5.22;;
80700;SDS011;71609;42.630;23.380;2023-10-19T10:15:57;25.70;;;3.80;;
80700;SDS011;71609;42.630;23.380;2023-10-19T10:18:25;20.67;;;3.97;;
80700;SDS011;71609;42.630;23.380;2023-10-19T10:23:44;15.73;;;3.53;;
80700;SDS011;71609;42.630;23.380;2023-10-19T10:26:13;17.50;;;3.72;;
80700;SDS011;71609;42.630;23.380;2023-10-19T10:31:43;15.63;;;3.03;;
80700;SDS011;71609;42.630;23.380;2023-10-19T10:34:11;12.02;;;3.53;;
80700;SDS011;71609;42.630;23.380;2023-10-19T10:37:00;17.98;;;3.80;;
80700;SDS011;71609;42.630;23.380;2023-10-19T10:39:30;19.75;;;3.60;;
80700;SDS011;71609;42.630;23.380;2023-10-19T10:42:02;13.93;;;3.33;;
80700;SDS011;71609;42.630;23.380;2023-10-19T10:44:36;10.82;;;3.78;;
80700;SDS011;71609;42.630;23.380;2023-10-19T10:47:05;11.98;;;3.42;;
80700;SDS011;71609;42.630;23.380;2023-10-19T10:49:35;13.27;;;3.35;;
80700;SDS011;71609;42.630;23.380;2023-10-19T10:52:11;11.35;;;3.25;;
80700;SDS011;71609;42.630;23.380;2023-10-19T10:54:37;11.05;;;3.25;;
80700;SDS011;71609;42.630;23.380;2023-10-19T10:57:04;20.73;;;3.50;;
80700;SDS011;71609;42.630;23.380;2023-10-19T10:59:30;12.02;;;3.38;;
80700;SDS011;71609;42.630;23.380;2023-10-19T11:01:56;15.95;;;3.35;;
80700;SDS011;71609;42.630;23.380;2023-10-19T11:06:57;9.15;;;3.00;;
80700;SDS011;71609;42.630;23.380;2023-10-19T11:09:23;8.43;;;3.28;;
80700;SDS011;71609;42.630;23.380;2023-10-19T11:11:49;7.85;;;3.17;;
80700;SDS011;71609;42.630;23.380;2023-10-19T11:14:17;8.10;;;3.08;;
80700;SDS011;71609;42.630;23.380;2023-10-19T11:16:43;6.10;;;3.22;;
80700;SDS011;71609;42.630;23.380;2023-10-19T11:19:08;8.52;;;3.50;;
80700;SDS011;71609;42.630;23.380;2023-10-19T11:21:35;8.68;;;3.10;;
80700;SDS011;71609;42.630;23.380;2023-10-19T11:24:01;9.05;;;3.40;;
80700;SDS011;71609;42.630;23.380;2023-10-19T11:26:27;8.55;;;3.17;;
80700;SDS011;71609;42.630;23.380;2023-10-19T11:29:00;10.63;;;3.83;;
80700;SDS011;71609;42.630;23.380;2023-10-19T11:31:29;5.75;;;2.97;;
80700;SDS011;71609;42.630;23.380;2023-10-19T11:34:04;6.65;;;3.40;;
80700;SDS011;71609;42.630;23.380;2023-10-19T11:36:31;10.00;;;3.35;;
80700;SDS011;71609;42.630;23.380;2023-10-19T11:38:59;7.70;;;3.13;;
80700;SDS011;71609;42.630;23.380;2023-10-19T11:41:25;11.23;;;3.05;;
80700;SDS011;71609;42.630;23.380;2023-10-19T11:43:50;12.23;;;3.45;;
80700;SDS011;71609;42.630;23.380;2023-10-19T11:46:17;6.20;;;3.10;;
80700;SDS011;71609;42.630;23.380;2023-10-19T11:48:52;7.47;;;3.55;;
80700;SDS011;71609;42.630;23.380;2023-10-19T11:51:18;7.63;;;3.63;;
80700;SDS011;71609;42.630;23.380;2023-10-19T11:53:43;6.32;;;3.50;;
80700;SDS011;71609;42.630;23.380;2023-10-19T11:56:10;7.63;;;3.17;;
80700;SDS011;71609;42.630;23.380;2023-10-19T11:58:38;6.07;;;3.28;;
80700;SDS011;71609;42.630;23.380;2023-10-19T12:01:07;6.38;;;3.40;;
80700;SDS011;71609;42.630;23.380;2023-10-19T12:03:34;8.82;;;3.15;;
80700;SDS011;71609;42.630;23.380;2023-10-19T12:06:05;12.70;;;3.60;;
80700;SDS011;71609;42.630;23.380;2023-10-19T12:08:35;6.82;;;3.60;;
80700;SDS011;71609;42.630;23.380;2023-10-19T12:11:02;6.50;;;3.70;;
80700;SDS011;71609;42.630;23.380;2023-10-19T12:13:29;9.85;;;3.60;;
80700;SDS011;71609;42.630;23.380;2023-10-19T12:15:56;11.25;;;3.63;;
80700;SDS011;71609;42.630;23.380;2023-10-19T12:18:23;12.82;;;3.70;;
80700;SDS011;71609;42.630;23.380;2023-10-19T12:20:51;13.20;;;3.80;;
80700;SDS011;71609;42.630;23.380;2023-10-19T12:23:22;25.88;;;4.10;;
80700;SDS011;71609;42.630;23.380;2023-10-19T12:28:16;15.75;;;3.55;;
80700;SDS011;71609;42.630;23.380;2023-10-19T12:30:42;12.88;;;4.30;;
80700;SDS011;71609;42.630;23.380;2023-10-19T12:33:08;11.32;;;3.33;;
80700;SDS011;71609;42.630;23.380;2023-10-19T12:35:37;12.27;;;3.77;;
80700;SDS011;71609;42.630;23.380;2023-10-19T12:38:13;10.85;;;3.30;;
80700;SDS011;71609;42.630;23.380;2023-10-19T12:40:45;13.00;;;3.80;;
80700;SDS011;71609;42.630;23.380;2023-10-19T12:43:11;10.00;;;3.55;;
80700;SDS011;71609;42.630;23.380;2023-10-19T12:48:06;18.60;;;3.80;;
80700;SDS011;71609;42.630;23.380;2023-10-19T12:50:36;14.32;;;3.90;;
80700;SDS011;71609;42.630;23.380;2023-10-19T12:53:03;9.00;;;3.47;;
80700;SDS011;71609;42.630;23.380;2023-10-19T12:55:29;16.88;;;3.70;;
80700;SDS011;71609;42.630;23.380;2023-10-19T12:57:56;18.25;;;4.03;;
80700;SDS011;71609;42.630;23.380;2023-10-19T13:00:23;14.88;;;3.80;;
80700;SDS011;71609;42.630;23.380;2023-10-19T13:02:49;9.63;;;3.65;;
80700;SDS011;71609;42.630;23.380;2023-10-19T13:05:15;12.35;;;3.22;;
80700;SDS011;71609;42.630;23.380;2023-10-19T13:07:46;15.73;;;3.22;;
80700;SDS011;71609;42.630;23.380;2023-10-19T13:10:12;13.48;;;3.72;;
80700;SDS011;71609;42.630;23.380;2023-10-19T13:12:38;11.38;;;3.72;;
80700;SDS011;71609;42.630;23.380;2023-10-19T13:15:04;15.30;;;3.80;;
80700;SDS011;71609;42.630;23.380;2023-10-19T13:17:39;16.58;;;3.58;;
80700;SDS011;71609;42.630;23.380;2023-10-19T13:20:05;19.00;;;4.22;;
80700;SDS011;71609;42.630;23.380;2023-10-19T13:22:41;17.05;;;4.18;;
80700;SDS011;71609;42.630;23.380;2023-10-19T13:25:07;30.48;;;4.15;;
80700;SDS011;71609;42.630;23.380;2023-10-19T13:27:42;39.13;;;5.55;;
80700;SDS011;71609;42.630;23.380;2023-10-19T13:30:15;35.63;;;3.97;;
80700;SDS011;71609;42.630;23.380;2023-10-19T13:32:41;34.00;;;4.63;;
80700;SDS011;71609;42.630;23.380;2023-10-19T13:35:07;29.98;;;4.15;;
80700;SDS011;71609;42.630;23.380;2023-10-19T13:37:34;34.45;;;5.00;;
80700;SDS011;71609;42.630;23.380;2023-10-19T13:40:01;29.23;;;4.13;;
80700;SDS011;71609;42.630;23.380;2023-10-19T13:42:29;21.33;;;3.80;;
80700;SDS011;71609;42.630;23.380;2023-10-19T13:44:54;37.90;;;4.50;;
80700;SDS011;71609;42.630;23.380;2023-10-19T13:47:21;23.00;;;4.05;;
80700;SDS011;71609;42.630;23.380;2023-10-19T13:49:47;17.17;;;3.85;;
80700;SDS011;71609;42.630;23.380;2023-10-19T13:52:13;36.35;;;4.47;;
80700;SDS011;71609;42.630;23.380;2023-10-19T13:54:40;37.42;;;4.55;;
80700;SDS011;71609;42.630;23.380;2023-10-19T13:57:06;41.72;;;4.85;;
80700;SDS011;71609;42.630;23.380;2023-10-19T13:59:32;29.30;;;4.30;;
80700;SDS011;71609;42.630;23.380;2023-10-19T14:01:58;23.20;;;4.35;;
80700;SDS011;71609;42.630;23.380;2023-10-19T14:04:24;25.73;;;4.40;;
80700;SDS011;71609;42.630;23.380;2023-10-19T14:06:51;32.45;;;4.03;;
80700;SDS011;71609;42.630;23.380;2023-10-19T14:09:16;32.60;;;4.30;;
80700;SDS011;71609;42.630;23.380;2023-10-19T14:11:43;17.55;;;4.07;;
80700;SDS011;71609;42.630;23.380;2023-10-19T14:14:10;23.20;;;4.05;;
80700;SDS011;71609;42.630;23.380;2023-10-19T14:16:36;26.15;;;4.60;;
80700;SDS011;71609;42.630;23.380;2023-10-19T14:19:02;25.38;;;4.38;;
80700;SDS011;71609;42.630;23.380;2023-10-19T14:21:29;56.92;;;4.47;;
80700;SDS011;71609;42.630;23.380;2023-10-19T14:23:55;18.88;;;4.25;;
80700;SDS011;71609;42.630;23.380;2023-10-19T14:26:21;25.85;;;5.03;;
80700;SDS011;71609;42.630;23.380;2023-10-19T14:28:47;15.75;;;3.83;;
80700;SDS011;71609;42.630;23.380;2023-10-19T14:31:13;29.85;;;4.47;;
80700;SDS011;71609;42.630;23.380;2023-10-19T14:33:39;33.85;;;4.25;;
80700;SDS011;71609;42.630;23.380;2023-10-19T14:36:05;22.67;;;4.50;;
80700;SDS011;71609;42.630;23.380;2023-10-19T14:38:31;30.63;;;4.85;;
80700;SDS011;71609;42.630;23.380;2023-10-19T14:40:57;19.27;;;3.90;;
80700;SDS011;71609;42.630;23.380;2023-10-19T14:43:23;22.92;;;4.97;;
80700;SDS011;71609;42.630;23.380;2023-10-19T14:45:54;23.52;;;3.72;;
80700;SDS011;71609;42.630;23.380;2023-10-19T14:48:21;17.10;;;4.10;;
80700;SDS011;71609;42.630;23.380;2023-10-19T14:50:49;24.45;;;4.25;;
80700;SDS011;71609;42.630;23.380;2023-10-19T14:53:16;35.05;;;4.88;;
80700;SDS011;71609;42.630;23.380;2023-10-19T14:55:46;22.75;;;3.78;;
80700;SDS011;71609;42.630;23.380;2023-10-19T14:58:11;25.58;;;4.72;;
80700;SDS011;71609;42.630;23.380;2023-10-19T15:00:37;26.40;;;3.83;;
80700;SDS011;71609;42.630;23.380;2023-10-19T15:03:07;16.40;;;4.55;;
80700;SDS011;71609;42.630;23.380;2023-10-19T15:05:33;25.50;;;4.93;;
80700;SDS011;71609;42.630;23.380;2023-10-19T15:08:06;23.50;;;3.88;;
80700;SDS011;71609;42.630;23.380;2023-10-19T15:10:32;22.05;;;3.72;;
80700;SDS011;71609;42.630;23.380;2023-10-19T15:12:59;24.05;;;4.35;;
80700;SDS011;71609;42.630;23.380;2023-10-19T15:15:25;18.40;;;3.88;;
80700;SDS011;71609;42.630;23.380;2023-10-19T15:17:52;15.68;;;3.92;;
80700;SDS011;71609;42.630;23.380;2023-10-19T15:20:19;16.85;;;4.72;;
80700;SDS011;71609;42.630;23.380;2023-10-19T15:22:47;19.10;;;4.00;;
80700;SDS011;71609;42.630;23.380;2023-10-19T15:25:13;15.15;;;4.00;;
80700;SDS011;71609;42.630;23.380;2023-10-19T15:27:43;19.08;;;4.05;;
80700;SDS011;71609;42.630;23.380;2023-10-19T15:32:36;11.20;;;3.33;;
80700;SDS011;71609;42.630;23.380;2023-10-19T15:35:12;16.92;;;3.70;;
80700;SDS011;71609;42.630;23.380;2023-10-19T15:37:45;17.20;;;4.15;;